Terminal Aerodrome Forecast
Issued by NWS Hastings, NE

Home | Current Version | Previous Version | Text Only | Print | Product List | Glossary On
Versions: 1 2 3 4 5 6 7 8 9 10 11 12 13 14
000
FTUS43 KGID 271120
TAFGRI
TAF
KGRI 271120Z 2712/2812 19006KT P6SM SCT100 BKN250
     FM271800 18007KT P6SM VCTS FEW070CB SCT250
     FM280000 05006KT P6SM VCTS FEW060CB SCT200
     FM280600 34005KT P6SM BKN110
     FM281000 35004KT P6SM SCT110=

USA.gov is the U.S. government's official web portal to all federal, state and local government web resources and services.